sensor_id;sensor_type;location;lat;lon;timestamp;pressure;altitude;pressure_sealevel;temperature;humidity
8140;BME280;4111;50.972;7.072;2023-09-19T00:00:24;100424.06;;;18.36;86.85
8140;BME280;4111;50.972;7.072;2023-09-19T00:02:57;100421.84;;;18.38;87.42
8140;BME280;4111;50.972;7.072;2023-09-19T00:05:29;100418.19;;;18.29;86.51
8140;BME280;4111;50.972;7.072;2023-09-19T00:07:57;100426.44;;;18.29;86.42
8140;BME280;4111;50.972;7.072;2023-09-19T00:10:27;100426.44;;;18.29;86.33
8140;BME280;4111;50.972;7.072;2023-09-19T00:13:01;100429.16;;;18.29;86.36
8140;BME280;4111;50.972;7.072;2023-09-19T00:15:37;100436.50;;;18.34;86.13
8140;BME280;4111;50.972;7.072;2023-09-19T00:18:05;100435.06;;;18.36;86.36
8140;BME280;4111;50.972;7.072;2023-09-19T00:20:35;100436.91;;;18.27;85.44
8140;BME280;4111;50.972;7.072;2023-09-19T00:23:02;100435.28;;;18.26;85.57
8140;BME280;4111;50.972;7.072;2023-09-19T00:25:31;100439.97;;;18.26;86.01
8140;BME280;4111;50.972;7.072;2023-09-19T00:28:05;100433.66;;;18.25;86.08
8140;BME280;4111;50.972;7.072;2023-09-19T00:30:34;100446.38;;;18.21;85.87
8140;BME280;4111;50.972;7.072;2023-09-19T00:33:00;100444.13;;;18.23;86.25
8140;BME280;4111;50.972;7.072;2023-09-19T00:35:28;100445.88;;;18.19;86.08
8140;BME280;4111;50.972;7.072;2023-09-19T00:37:55;100448.13;;;18.17;85.78
8140;BME280;4111;50.972;7.072;2023-09-19T00:40:22;100448.19;;;18.12;85.90
8140;BME280;4111;50.972;7.072;2023-09-19T00:42:49;100449.31;;;18.11;85.50
8140;BME280;4111;50.972;7.072;2023-09-19T00:45:17;100447.38;;;18.11;85.57
8140;BME280;4111;50.972;7.072;2023-09-19T00:47:47;100450.44;;;18.10;85.25
8140;BME280;4111;50.972;7.072;2023-09-19T00:50:19;100453.78;;;18.07;85.26
8140;BME280;4111;50.972;7.072;2023-09-19T00:52:48;100455.72;;;18.06;85.48
8140;BME280;4111;50.972;7.072;2023-09-19T00:55:16;100459.19;;;18.12;85.90
8140;BME280;4111;50.972;7.072;2023-09-19T00:57:46;100464.19;;;18.10;85.40
8140;BME280;4111;50.972;7.072;2023-09-19T01:00:14;100460.28;;;18.11;85.62
8140;BME280;4111;50.972;7.072;2023-09-19T01:02:42;100464.75;;;18.07;85.10
8140;BME280;4111;50.972;7.072;2023-09-19T01:05:10;100468.66;;;18.06;85.19
8140;BME280;4111;50.972;7.072;2023-09-19T01:07:39;100468.03;;;18.09;85.03
8140;BME280;4111;50.972;7.072;2023-09-19T01:10:13;100470.69;;;18.14;85.30
8140;BME280;4111;50.972;7.072;2023-09-19T01:17:55;100466.00;;;18.14;85.11
8140;BME280;4111;50.972;7.072;2023-09-19T01:21:13;100466.22;;;18.18;84.98
8140;BME280;4111;50.972;7.072;2023-09-19T01:26:44;100471.19;;;18.16;84.73
8140;BME280;4111;50.972;7.072;2023-09-19T01:29:38;100472.34;;;18.15;84.48
8140;BME280;4111;50.972;7.072;2023-09-19T01:32:06;100483.41;;;18.10;84.33
8140;BME280;4111;50.972;7.072;2023-09-19T01:34:50;100482.81;;;18.13;84.63
8140;BME280;4111;50.972;7.072;2023-09-19T01:37:18;100482.47;;;18.14;84.59
8140;BME280;4111;50.972;7.072;2023-09-19T01:39:49;100488.59;;;18.11;84.62
8140;BME280;4111;50.972;7.072;2023-09-19T01:42:35;100491.06;;;18.13;84.93
8140;BME280;4111;50.972;7.072;2023-09-19T01:45:12;100492.97;;;18.12;84.56
8140;BME280;4111;50.972;7.072;2023-09-19T01:47:48;100491.13;;;18.08;84.54
8140;BME280;4111;50.972;7.072;2023-09-19T01:50:31;100493.97;;;18.02;84.27
8140;BME280;4111;50.972;7.072;2023-09-19T01:53:15;100500.41;;;18.12;84.67
8140;BME280;4111;50.972;7.072;2023-09-19T01:55:48;100504.88;;;18.08;84.68
8140;BME280;4111;50.972;7.072;2023-09-19T02:00:49;100507.81;;;17.97;84.18
8140;BME280;4111;50.972;7.072;2023-09-19T02:03:21;100511.97;;;17.95;84.08
8140;BME280;4111;50.972;7.072;2023-09-19T02:05:51;100508.91;;;17.96;83.50
8140;BME280;4111;50.972;7.072;2023-09-19T02:08:21;100509.53;;;17.93;84.13
8140;BME280;4111;50.972;7.072;2023-09-19T02:10:52;100520.53;;;17.93;83.72
8140;BME280;4111;50.972;7.072;2023-09-19T02:13:20;100522.53;;;17.88;83.43
8140;BME280;4111;50.972;7.072;2023-09-19T02:15:46;100519.28;;;17.86;83.13
8140;BME280;4111;50.972;7.072;2023-09-19T02:18:13;100529.44;;;17.85;83.06
8140;BME280;4111;50.972;7.072;2023-09-19T02:20:41;100532.09;;;17.90;82.98
8140;BME280;4111;50.972;7.072;2023-09-19T02:23:08;100526.22;;;17.97;82.29
8140;BME280;4111;50.972;7.072;2023-09-19T02:25:35;100527.56;;;17.99;81.98
8140;BME280;4111;50.972;7.072;2023-09-19T02:28:01;100534.16;;;17.98;81.69
8140;BME280;4111;50.972;7.072;2023-09-19T02:30:30;100541.28;;;17.99;82.04
8140;BME280;4111;50.972;7.072;2023-09-19T02:32:56;100541.38;;;17.94;81.29
8140;BME280;4111;50.972;7.072;2023-09-19T02:35:23;100544.63;;;17.96;81.34
8140;BME280;4111;50.972;7.072;2023-09-19T02:37:51;100550.03;;;18.01;81.08
8140;BME280;4111;50.972;7.072;2023-09-19T02:40:18;100547.88;;;17.98;80.59
8140;BME280;4111;50.972;7.072;2023-09-19T02:42:47;100543.81;;;17.96;80.53
8140;BME280;4111;50.972;7.072;2023-09-19T02:45:16;100545.84;;;17.90;80.10
8140;BME280;4111;50.972;7.072;2023-09-19T02:47:47;100549.53;;;17.80;80.03
8140;BME280;4111;50.972;7.072;2023-09-19T02:50:15;100547.03;;;17.84;80.35
8140;BME280;4111;50.972;7.072;2023-09-19T02:52:43;100557.72;;;17.86;80.05
8140;BME280;4111;50.972;7.072;2023-09-19T02:55:13;100556.66;;;17.81;79.99
8140;BME280;4111;50.972;7.072;2023-09-19T02:57:51;100563.78;;;17.82;79.90
8140;BME280;4111;50.972;7.072;2023-09-19T03:00:19;100558.06;;;17.79;79.72
8140;BME280;4111;50.972;7.072;2023-09-19T03:02:52;100556.44;;;17.78;79.47
8140;BME280;4111;50.972;7.072;2023-09-19T03:05:20;100556.97;;;17.80;79.55
8140;BME280;4111;50.972;7.072;2023-09-19T03:07:47;100556.81;;;17.71;79.57
8140;BME280;4111;50.972;7.072;2023-09-19T03:10:18;100557.66;;;17.72;79.75
8140;BME280;4111;50.972;7.072;2023-09-19T03:12:48;100567.59;;;17.68;80.07
8140;BME280;4111;50.972;7.072;2023-09-19T03:15:15;100566.56;;;17.63;80.21
8140;BME280;4111;50.972;7.072;2023-09-19T03:17:46;100572.63;;;17.60;80.46
8140;BME280;4111;50.972;7.072;2023-09-19T03:20:15;100578.19;;;17.55;80.24
8140;BME280;4111;50.972;7.072;2023-09-19T03:22:44;100576.66;;;17.49;80.67
8140;BME280;4111;50.972;7.072;2023-09-19T03:25:11;100587.03;;;17.52;80.70
8140;BME280;4111;50.972;7.072;2023-09-19T03:27:39;100585.03;;;17.39;80.92
8140;BME280;4111;50.972;7.072;2023-09-19T03:30:06;100590.47;;;17.44;81.25
8140;BME280;4111;50.972;7.072;2023-09-19T03:32:43;100585.53;;;17.41;81.07
8140;BME280;4111;50.972;7.072;2023-09-19T03:35:10;100584.50;;;17.37;81.70
8140;BME280;4111;50.972;7.072;2023-09-19T03:37:37;100587.88;;;17.34;81.60
8140;BME280;4111;50.972;7.072;2023-09-19T03:40:04;100581.25;;;17.35;81.85
8140;BME280;4111;50.972;7.072;2023-09-19T03:42:31;100578.72;;;17.38;81.49
8140;BME280;4111;50.972;7.072;2023-09-19T03:44:58;100573.53;;;17.37;81.67
8140;BME280;4111;50.972;7.072;2023-09-19T03:47:27;100569.75;;;17.33;81.99
8140;BME280;4111;50.972;7.072;2023-09-19T03:49:53;100568.28;;;17.40;81.95
8140;BME280;4111;50.972;7.072;2023-09-19T03:52:20;100568.66;;;17.34;81.69
8140;BME280;4111;50.972;7.072;2023-09-19T03:54:46;100577.97;;;17.33;81.99
8140;BME280;4111;50.972;7.072;2023-09-19T03:57:13;100567.28;;;17.31;82.13
8140;BME280;4111;50.972;7.072;2023-09-19T03:59:42;100565.06;;;17.33;82.27
8140;BME280;4111;50.972;7.072;2023-09-19T04:02:09;100570.94;;;17.27;82.25
8140;BME280;4111;50.972;7.072;2023-09-19T04:04:49;100575.81;;;17.30;82.15
8140;BME280;4111;50.972;7.072;2023-09-19T04:07:16;100571.47;;;17.29;82.14
8140;BME280;4111;50.972;7.072;2023-09-19T04:09:42;100562.72;;;17.27;82.08
8140;BME280;4111;50.972;7.072;2023-09-19T04:12:09;100564.84;;;17.30;82.01
8140;BME280;4111;50.972;7.072;2023-09-19T04:14:35;100566.19;;;17.32;82.33
8140;BME280;4111;50.972;7.072;2023-09-19T04:17:02;100572.50;;;17.33;82.69
8140;BME280;4111;50.972;7.072;2023-09-19T04:19:29;100564.84;;;17.30;82.35
8140;BME280;4111;50.972;7.072;2023-09-19T04:21:56;100574.88;;;17.20;82.07
8140;BME280;4111;50.972;7.072;2023-09-19T04:24:22;100575.72;;;17.16;82.44
8140;BME280;4111;50.972;7.072;2023-09-19T04:26:49;100579.09;;;17.13;82.31
8140;BME280;4111;50.972;7.072;2023-09-19T04:29:15;100566.53;;;17.07;82.41
8140;BME280;4111;50.972;7.072;2023-09-19T04:31:42;100575.59;;;17.07;82.67
8140;BME280;4111;50.972;7.072;2023-09-19T04:34:10;100581.06;;;17.07;82.67
8140;BME280;4111;50.972;7.072;2023-09-19T04:36:36;100584.38;;;17.04;82.91
8140;BME280;4111;50.972;7.072;2023-09-19T04:39:03;100575.13;;;17.00;82.69
8140;BME280;4111;50.972;7.072;2023-09-19T04:41:33;100582.81;;;16.98;82.80
8140;BME280;4111;50.972;7.072;2023-09-19T04:44:00;100578.47;;;16.97;82.59
8140;BME280;4111;50.972;7.072;2023-09-19T04:46:26;100584.09;;;17.05;82.59
8140;BME280;4111;50.972;7.072;2023-09-19T04:48:53;100590.41;;;17.06;82.57
8140;BME280;4111;50.972;7.072;2023-09-19T04:51:20;100592.28;;;17.11;82.40
8140;BME280;4111;50.972;7.072;2023-09-19T04:53:47;100601.97;;;17.03;82.57
8140;BME280;4111;50.972;7.072;2023-09-19T04:56:14;100606.84;;;17.06;82.17
8140;BME280;4111;50.972;7.072;2023-09-19T04:58:41;100610.72;;;17.05;81.85
8140;BME280;4111;50.972;7.072;2023-09-19T05:01:08;100605.59;;;16.98;82.05
8140;BME280;4111;50.972;7.072;2023-09-19T05:03:37;100608.16;;;16.90;81.84
8140;BME280;4111;50.972;7.072;2023-09-19T05:06:04;100605.94;;;16.92;81.67
8140;BME280;4111;50.972;7.072;2023-09-19T05:08:31;100608.22;;;16.84;82.10
8140;BME280;4111;50.972;7.072;2023-09-19T05:10:57;100612.59;;;16.85;81.78
8140;BME280;4111;50.972;7.072;2023-09-19T05:13:24;100614.81;;;16.83;81.76
8140;BME280;4111;50.972;7.072;2023-09-19T05:15:50;100614.28;;;16.81;81.47
8140;BME280;4111;50.972;7.072;2023-09-19T05:18:17;100613.03;;;16.69;81.29
8140;BME280;4111;50.972;7.072;2023-09-19T05:20:43;100615.81;;;16.63;81.26
8140;BME280;4111;50.972;7.072;2023-09-19T05:23:10;100613.97;;;16.59;81.35
8140;BME280;4111;50.972;7.072;2023-09-19T05:25:40;100621.06;;;16.60;81.07
8140;BME280;4111;50.972;7.072;2023-09-19T05:28:08;100627.66;;;16.59;80.97
8140;BME280;4111;50.972;7.072;2023-09-19T05:30:36;100628.47;;;16.59;81.05
8140;BME280;4111;50.972;7.072;2023-09-19T05:33:03;100635.53;;;16.65;80.86
8140;BME280;4111;50.972;7.072;2023-09-19T05:35:31;100639.72;;;16.58;80.33
8140;BME280;4111;50.972;7.072;2023-09-19T05:37:57;100643.81;;;16.60;80.00
8140;BME280;4111;50.972;7.072;2023-09-19T05:40:25;100647.31;;;16.66;80.07
8140;BME280;4111;50.972;7.072;2023-09-19T05:42:52;100653.31;;;16.68;79.66
8140;BME280;4111;50.972;7.072;2023-09-19T05:45:19;100654.44;;;16.67;79.26
8140;BME280;4111;50.972;7.072;2023-09-19T05:47:49;100655.53;;;16.66;79.10
8140;BME280;4111;50.972;7.072;2023-09-19T05:50:17;100664.34;;;16.63;78.95
8140;BME280;4111;50.972;7.072;2023-09-19T05:52:51;100672.50;;;16.68;78.97
8140;BME280;4111;50.972;7.072;2023-09-19T05:55:19;100678.34;;;16.61;78.65
8140;BME280;4111;50.972;7.072;2023-09-19T05:57:52;100674.19;;;16.64;78.92
8140;BME280;4111;50.972;7.072;2023-09-19T06:00:23;100673.34;;;16.69;78.59
8140;BME280;4111;50.972;7.072;2023-09-19T06:02:54;100682.66;;;16.68;78.51
8140;BME280;4111;50.972;7.072;2023-09-19T06:05:21;100681.34;;;16.65;78.83
8140;BME280;4111;50.972;7.072;2023-09-19T06:07:47;100694.44;;;16.68;78.62
8140;BME280;4111;50.972;7.072;2023-09-19T06:10:14;100690.03;;;16.72;78.62
8140;BME280;4111;50.972;7.072;2023-09-19T06:12:44;100687.59;;;16.71;78.58
8140;BME280;4111;50.972;7.072;2023-09-19T06:15:14;100698.59;;;16.65;78.59
8140;BME280;4111;50.972;7.072;2023-09-19T06:17:49;100708.69;;;16.70;78.53
8140;BME280;4111;50.972;7.072;2023-09-19T06:20:17;100697.25;;;16.63;78.59
8140;BME280;4111;50.972;7.072;2023-09-19T06:22:45;100709.28;;;16.67;78.67
8140;BME280;4111;50.972;7.072;2023-09-19T06:25:13;100712.66;;;16.59;78.46
8140;BME280;4111;50.972;7.072;2023-09-19T06:27:51;100717.53;;;16.62;78.74
8140;BME280;4111;50.972;7.072;2023-09-19T06:30:21;100716.97;;;16.65;78.89
8140;BME280;4111;50.972;7.072;2023-09-19T06:32:55;100721.28;;;16.71;78.51
8140;BME280;4111;50.972;7.072;2023-09-19T06:35:23;100714.50;;;16.63;78.67
8140;BME280;4111;50.972;7.072;2023-09-19T06:37:50;100721.94;;;16.63;78.97
8140;BME280;4111;50.972;7.072;2023-09-19T06:40:17;100712.56;;;16.64;78.91
8140;BME280;4111;50.972;7.072;2023-09-19T06:42:50;100714.13;;;16.75;78.99
8140;BME280;4111;50.972;7.072;2023-09-19T06:45:17;100724.28;;;16.75;79.01
8140;BME280;4111;50.972;7.072;2023-09-19T06:47:45;100723.41;;;16.79;79.12
8140;BME280;4111;50.972;7.072;2023-09-19T06:50:12;100728.81;;;16.90;78.88
8140;BME280;4111;50.972;7.072;2023-09-19T06:52:46;100731.03;;;16.88;78.92
8140;BME280;4111;50.972;7.072;2023-09-19T06:55:16;100729.88;;;16.94;78.66
8140;BME280;4111;50.972;7.072;2023-09-19T06:57:43;100727.03;;;17.04;78.56
8140;BME280;4111;50.972;7.072;2023-09-19T07:00:11;100722.06;;;17.06;78.51
8140;BME280;4111;50.972;7.072;2023-09-19T07:03:01;100724.28;;;17.04;78.45
8140;BME280;4111;50.972;7.072;2023-09-19T07:05:31;100734.72;;;17.02;78.24
8140;BME280;4111;50.972;7.072;2023-09-19T07:08:01;100734.28;;;16.95;78.25
8140;BME280;4111;50.972;7.072;2023-09-19T07:10:28;100731.47;;;17.00;78.23
8140;BME280;4111;50.972;7.072;2023-09-19T07:13:05;100724.19;;;17.14;78.21
8140;BME280;4111;50.972;7.072;2023-09-19T07:15:35;100725.78;;;17.20;77.91
8140;BME280;4111;50.972;7.072;2023-09-19T07:18:03;100734.00;;;17.20;77.72
8140;BME280;4111;50.972;7.072;2023-09-19T07:20:29;100735.69;;;17.16;77.73
8140;BME280;4111;50.972;7.072;2023-09-19T07:22:59;100740.34;;;17.16;77.91
8140;BME280;4111;50.972;7.072;2023-09-19T07:25:28;100735.34;;;17.23;77.97
8140;BME280;4111;50.972;7.072;2023-09-19T07:27:56;100727.41;;;17.21;78.24
8140;BME280;4111;50.972;7.072;2023-09-19T07:30:22;100733.34;;;17.29;78.13
8140;BME280;4111;50.972;7.072;2023-09-19T07:32:49;100725.38;;;17.32;77.88
8140;BME280;4111;50.972;7.072;2023-09-19T07:35:16;100730.56;;;17.34;78.06
8140;BME280;4111;50.972;7.072;2023-09-19T07:37:42;100746.56;;;17.27;77.78
8140;BME280;4111;50.972;7.072;2023-09-19T07:40:09;100745.34;;;17.38;78.13
8140;BME280;4111;50.972;7.072;2023-09-19T07:42:37;100746.84;;;17.49;77.93
8140;BME280;4111;50.972;7.072;2023-09-19T07:45:05;100748.47;;;17.50;77.87
8140;BME280;4111;50.972;7.072;2023-09-19T07:47:33;100761.09;;;17.51;77.38
8140;BME280;4111;50.972;7.072;2023-09-19T07:49:59;100752.19;;;17.59;77.28
8140;BME280;4111;50.972;7.072;2023-09-19T07:52:28;100761.44;;;17.69;77.83
8140;BME280;4111;50.972;7.072;2023-09-19T07:54:55;100756.97;;;17.73;77.22
8140;BME280;4111;50.972;7.072;2023-09-19T07:57:24;100751.19;;;17.74;77.00
8140;BME280;4111;50.972;7.072;2023-09-19T07:59:51;100748.34;;;17.84;77.02
8140;BME280;4111;50.972;7.072;2023-09-19T08:02:18;100753.94;;;17.98;76.66
8140;BME280;4111;50.972;7.072;2023-09-19T08:04:45;100753.25;;;17.88;76.32
8140;BME280;4111;50.972;7.072;2023-09-19T08:07:13;100745.69;;;17.98;76.36
8140;BME280;4111;50.972;7.072;2023-09-19T08:09:39;100745.34;;;18.05;76.02
8140;BME280;4111;50.972;7.072;2023-09-19T08:12:07;100751.53;;;18.11;75.61
8140;BME280;4111;50.972;7.072;2023-09-19T08:14:37;100752.22;;;18.02;74.89
8140;BME280;4111;50.972;7.072;2023-09-19T08:17:04;100755.09;;;17.92;74.87
8140;BME280;4111;50.972;7.072;2023-09-19T08:19:32;100752.81;;;17.99;75.11
8140;BME280;4111;50.972;7.072;2023-09-19T08:21:59;100755.81;;;18.03;74.42
8140;BME280;4111;50.972;7.072;2023-09-19T08:24:26;100750.38;;;18.17;74.76
8140;BME280;4111;50.972;7.072;2023-09-19T08:26:55;100752.97;;;18.27;74.42
8140;BME280;4111;50.972;7.072;2023-09-19T08:29:22;100749.78;;;18.20;73.89
8140;BME280;4111;50.972;7.072;2023-09-19T08:31:57;100749.78;;;18.20;73.70
8140;BME280;4111;50.972;7.072;2023-09-19T08:34:25;100747.47;;;18.27;73.53
8140;BME280;4111;50.972;7.072;2023-09-19T08:36:53;100748.56;;;18.26;73.57
8140;BME280;4111;50.972;7.072;2023-09-19T08:39:23;100750.56;;;18.20;73.22
8140;BME280;4111;50.972;7.072;2023-09-19T08:41:51;100742.78;;;18.28;73.43
8140;BME280;4111;50.972;7.072;2023-09-19T08:44:23;100745.81;;;18.45;73.65
8140;BME280;4111;50.972;7.072;2023-09-19T08:46:54;100748.00;;;18.62;73.73
8140;BME280;4111;50.972;7.072;2023-09-19T08:52:25;100750.75;;;18.62;72.12
8140;BME280;4111;50.972;7.072;2023-09-19T08:54:58;100752.91;;;18.65;72.05
8140;BME280;4111;50.972;7.072;2023-09-19T08:57:28;100760.06;;;18.66;71.50
8140;BME280;4111;50.972;7.072;2023-09-19T08:59:56;100758.34;;;18.70;71.69
8140;BME280;4111;50.972;7.072;2023-09-19T09:02:23;100743.16;;;18.73;71.10
8140;BME280;4111;50.972;7.072;2023-09-19T09:04:50;100749.41;;;18.78;70.94
8140;BME280;4111;50.972;7.072;2023-09-19T09:07:17;100744.25;;;18.91;71.12
8140;BME280;4111;50.972;7.072;2023-09-19T09:09:45;100744.75;;;18.93;70.64
8140;BME280;4111;50.972;7.072;2023-09-19T09:12:13;100746.81;;;19.01;70.20
8140;BME280;4111;50.972;7.072;2023-09-19T09:14:44;100747.25;;;19.08;70.50
8140;BME280;4111;50.972;7.072;2023-09-19T09:17:11;100747.03;;;19.05;69.83
8140;BME280;4111;50.972;7.072;2023-09-19T09:19:38;100750.72;;;19.14;69.78
8140;BME280;4111;50.972;7.072;2023-09-19T09:22:09;100755.22;;;19.24;69.67
8140;BME280;4111;50.972;7.072;2023-09-19T09:24:37;100756.25;;;19.28;68.85
8140;BME280;4111;50.972;7.072;2023-09-19T09:27:16;100749.72;;;19.24;68.47
8140;BME280;4111;50.972;7.072;2023-09-19T09:29:46;100758.16;;;19.27;68.44
8140;BME280;4111;50.972;7.072;2023-09-19T09:34:50;100743.50;;;19.32;66.74
8140;BME280;4111;50.972;7.072;2023-09-19T09:37:17;100736.13;;;19.41;67.34
8140;BME280;4111;50.972;7.072;2023-09-19T09:40:05;100730.63;;;19.41;66.66
8140;BME280;4111;50.972;7.072;2023-09-19T09:42:54;100730.75;;;19.50;66.35
8140;BME280;4111;50.972;7.072;2023-09-19T09:45:25;100734.22;;;19.55;65.91
8140;BME280;4111;50.972;7.072;2023-09-19T09:47:57;100735.22;;;19.59;65.77
8140;BME280;4111;50.972;7.072;2023-09-19T09:52:56;100732.78;;;19.72;64.95
8140;BME280;4111;50.972;7.072;2023-09-19T09:56:04;100740.50;;;19.70;64.39
8140;BME280;4111;50.972;7.072;2023-09-19T09:58:38;100735.00;;;19.70;64.11
8140;BME280;4111;50.972;7.072;2023-09-19T10:01:06;100738.59;;;19.56;63.75
8140;BME280;4111;50.972;7.072;2023-09-19T10:03:38;100740.09;;;19.62;64.10
8140;BME280;4111;50.972;7.072;2023-09-19T10:06:12;100739.41;;;19.71;64.10
8140;BME280;4111;50.972;7.072;2023-09-19T10:09:01;100737.06;;;19.78;63.59
8140;BME280;4111;50.972;7.072;2023-09-19T10:11:41;100740.75;;;19.73;63.19
8140;BME280;4111;50.972;7.072;2023-09-19T10:14:11;100734.44;;;19.73;63.39
8140;BME280;4111;50.972;7.072;2023-09-19T10:16:45;100728.91;;;19.73;63.05
8140;BME280;4111;50.972;7.072;2023-09-19T10:19:21;100720.72;;;19.81;63.20
8140;BME280;4111;50.972;7.072;2023-09-19T10:21:50;100719.28;;;19.84;62.94
8140;BME280;4111;50.972;7.072;2023-09-19T10:24:17;100725.09;;;19.96;62.80
8140;BME280;4111;50.972;7.072;2023-09-19T10:26:45;100718.00;;;20.04;61.79
8140;BME280;4111;50.972;7.072;2023-09-19T10:29:14;100717.19;;;20.04;61.85
8140;BME280;4111;50.972;7.072;2023-09-19T10:31:44;100716.16;;;20.13;62.18
8140;BME280;4111;50.972;7.072;2023-09-19T10:34:15;100709.94;;;20.08;61.82
8140;BME280;4111;50.972;7.072;2023-09-19T10:36:45;100707.44;;;20.20;61.86
8140;BME280;4111;50.972;7.072;2023-09-19T10:39:15;100711.34;;;20.19;61.89
8140;BME280;4111;50.972;7.072;2023-09-19T10:41:52;100711.06;;;20.07;61.62
8140;BME280;4111;50.972;7.072;2023-09-19T10:44:26;100720.72;;;20.18;62.02
8140;BME280;4111;50.972;7.072;2023-09-19T10:46:52;100712.66;;;20.21;61.64
8140;BME280;4111;50.972;7.072;2023-09-19T10:49:21;100703.47;;;20.26;61.63
8140;BME280;4111;50.972;7.072;2023-09-19T10:51:50;100713.69;;;20.12;61.81
8140;BME280;4111;50.972;7.072;2023-09-19T10:54:22;100706.94;;;20.18;61.70
8140;BME280;4111;50.972;7.072;2023-09-19T10:56:53;100711.03;;;20.20;62.00
8140;BME280;4111;50.972;7.072;2023-09-19T10:59:21;100710.53;;;20.18;61.61
8140;BME280;4111;50.972;7.072;2023-09-19T11:01:50;100702.66;;;20.12;61.25
8140;BME280;4111;50.972;7.072;2023-09-19T11:07:12;100702.44;;;20.45;61.85
8140;BME280;4111;50.972;7.072;2023-09-19T11:09:47;100704.94;;;20.55;60.82
8140;BME280;4111;50.972;7.072;2023-09-19T11:15:08;100701.19;;;20.51;60.30
8140;BME280;4111;50.972;7.072;2023-09-19T11:17:43;100700.22;;;20.55;59.61
8140;BME280;4111;50.972;7.072;2023-09-19T11:30:33;100691.28;;;21.04;59.28
8140;BME280;4111;50.972;7.072;2023-09-19T11:33:26;100692.56;;;21.06;58.65
8140;BME280;4111;50.972;7.072;2023-09-19T11:36:11;100690.47;;;21.03;58.45
8140;BME280;4111;50.972;7.072;2023-09-19T11:43:50;100692.19;;;20.90;58.54
8140;BME280;4111;50.972;7.072;2023-09-19T11:46:21;100694.47;;;20.97;58.95
8140;BME280;4111;50.972;7.072;2023-09-19T11:48:49;100701.44;;;20.94;57.58
8140;BME280;4111;50.972;7.072;2023-09-19T11:51:19;100699.84;;;20.93;57.67
8140;BME280;4111;50.972;7.072;2023-09-19T11:53:51;100703.25;;;20.99;57.92
8140;BME280;4111;50.972;7.072;2023-09-19T11:56:21;100703.91;;;20.96;58.43
8140;BME280;4111;50.972;7.072;2023-09-19T11:58:51;100700.47;;;20.90;57.86
8140;BME280;4111;50.972;7.072;2023-09-19T12:01:32;100712.47;;;20.86;58.02
8140;BME280;4111;50.972;7.072;2023-09-19T12:04:02;100701.91;;;20.88;57.95
8140;BME280;4111;50.972;7.072;2023-09-19T12:06:31;100700.47;;;20.90;58.01
8140;BME280;4111;50.972;7.072;2023-09-19T12:09:02;100714.94;;;20.96;57.22
8140;BME280;4111;50.972;7.072;2023-09-19T12:11:41;100703.63;;;21.06;55.94
8140;BME280;4111;50.972;7.072;2023-09-19T12:14:08;100722.34;;;21.18;54.54
8140;BME280;4111;50.972;7.072;2023-09-19T12:16:35;100695.41;;;21.24;53.63
8140;BME280;4111;50.972;7.072;2023-09-19T12:19:19;100714.63;;;21.37;53.18
8140;BME280;4111;50.972;7.072;2023-09-19T12:22:03;100696.47;;;21.45;53.32
8140;BME280;4111;50.972;7.072;2023-09-19T12:24:33;100697.59;;;21.44;52.84
8140;BME280;4111;50.972;7.072;2023-09-19T12:27:02;100698.53;;;21.39;51.82
8140;BME280;4111;50.972;7.072;2023-09-19T12:29:48;100695.78;;;21.39;51.38
8140;BME280;4111;50.972;7.072;2023-09-19T12:32:16;100679.19;;;21.39;51.45
8140;BME280;4111;50.972;7.072;2023-09-19T12:34:50;100676.97;;;21.50;51.14
8140;BME280;4111;50.972;7.072;2023-09-19T12:37:18;100673.38;;;21.41;50.29
8140;BME280;4111;50.972;7.072;2023-09-19T12:39:50;100680.88;;;21.58;50.30
8140;BME280;4111;50.972;7.072;2023-09-19T12:42:21;100683.19;;;21.65;49.57
8140;BME280;4111;50.972;7.072;2023-09-19T12:44:50;100675.53;;;21.62;49.42
8140;BME280;4111;50.972;7.072;2023-09-19T12:47:22;100672.81;;;21.70;49.71
8140;BME280;4111;50.972;7.072;2023-09-19T12:50:18;100677.19;;;21.80;50.09
8140;BME280;4111;50.972;7.072;2023-09-19T12:52:49;100674.44;;;21.89;50.15
8140;BME280;4111;50.972;7.072;2023-09-19T12:55:27;100665.50;;;22.01;50.32
8140;BME280;4111;50.972;7.072;2023-09-19T13:00:50;100661.56;;;22.02;50.79
8140;BME280;4111;50.972;7.072;2023-09-19T13:05:56;100668.91;;;22.06;50.82
8140;BME280;4111;50.972;7.072;2023-09-19T13:08:40;100658.31;;;21.99;50.52
8140;BME280;4111;50.972;7.072;2023-09-19T13:11:13;100652.47;;;22.10;50.48
8140;BME280;4111;50.972;7.072;2023-09-19T13:13:45;100666.44;;;22.22;49.83
8140;BME280;4111;50.972;7.072;2023-09-19T13:16:16;100653.75;;;22.21;50.13
8140;BME280;4111;50.972;7.072;2023-09-19T13:18:53;100645.13;;;22.23;49.55
8140;BME280;4111;50.972;7.072;2023-09-19T13:21:31;100642.56;;;22.26;50.13
8140;BME280;4111;50.972;7.072;2023-09-19T13:24:20;100650.19;;;22.12;49.56
8140;BME280;4111;50.972;7.072;2023-09-19T13:26:47;100644.31;;;22.22;49.91
8140;BME280;4111;50.972;7.072;2023-09-19T13:29:13;100633.91;;;22.36;50.39
8140;BME280;4111;50.972;7.072;2023-09-19T13:31:51;100635.53;;;22.37;49.92
8140;BME280;4111;50.972;7.072;2023-09-19T13:34:21;100640.56;;;22.44;50.17
8140;BME280;4111;50.972;7.072;2023-09-19T13:36:47;100637.13;;;22.56;50.33
8140;BME280;4111;50.972;7.072;2023-09-19T13:39:15;100634.81;;;22.58;50.38
8140;BME280;4111;50.972;7.072;2023-09-19T13:41:47;100644.44;;;22.52;50.92
8140;BME280;4111;50.972;7.072;2023-09-19T13:44:14;100645.59;;;22.51;50.78
8140;BME280;4111;50.972;7.072;2023-09-19T13:46:42;100655.06;;;22.32;50.48
8140;BME280;4111;50.972;7.072;2023-09-19T13:49:13;100646.59;;;22.20;50.76
8140;BME280;4111;50.972;7.072;2023-09-19T13:51:40;100649.38;;;22.11;51.25
8140;BME280;4111;50.972;7.072;2023-09-19T13:54:11;100638.94;;;22.17;50.65
8140;BME280;4111;50.972;7.072;2023-09-19T13:56:38;100640.28;;;21.93;51.06
8140;BME280;4111;50.972;7.072;2023-09-19T13:59:05;100634.91;;;21.97;51.39
8140;BME280;4111;50.972;7.072;2023-09-19T14:01:32;100635.41;;;22.08;51.51
8140;BME280;4111;50.972;7.072;2023-09-19T14:03:58;100630.34;;;22.10;51.42
8140;BME280;4111;50.972;7.072;2023-09-19T14:06:25;100644.00;;;22.32;51.51
8140;BME280;4111;50.972;7.072;2023-09-19T14:08:51;100628.38;;;22.36;51.18
8140;BME280;4111;50.972;7.072;2023-09-19T14:11:18;100637.16;;;22.21;51.03